createdAt,value
2023-01-30T00:01:04.489Z,12.57
2023-01-30T00:03:31.746Z,13.63
2023-01-30T00:05:59.048Z,15.50
2023-01-30T00:08:26.025Z,14.13
2023-01-30T00:10:53.412Z,14.57
2023-01-30T00:13:20.658Z,16.30
2023-01-30T00:15:48.815Z,14.57
2023-01-30T00:18:15.876Z,14.80
2023-01-30T00:20:43.110Z,14.13
2023-01-30T00:23:10.656Z,16.13
2023-01-30T00:25:37.792Z,16.10
2023-01-30T00:28:05.021Z,17.63
2023-01-30T00:30:32.225Z,16.87
2023-01-30T00:33:00.192Z,18.03
2023-01-30T00:35:30.519Z,17.53
2023-01-30T00:37:58.614Z,17.90
2023-01-30T00:40:27.759Z,17.63
2023-01-30T00:43:14.469Z,17.07
2023-01-30T00:46:03.824Z,16.90
2023-01-30T00:48:31.908Z,17.03
2023-01-30T00:50:59.003Z,18.37
2023-01-30T00:53:26.071Z,17.13
2023-01-30T00:55:55.039Z,17.70
2023-01-30T00:58:23.288Z,16.37
2023-01-30T01:00:51.052Z,16.97
2023-01-30T01:03:19.913Z,16.73
2023-01-30T01:05:47.714Z,17.40
2023-01-30T01:08:15.133Z,16.57
2023-01-30T01:10:42.496Z,17.17
2023-01-30T01:13:10.787Z,18.10
2023-01-30T01:15:38.615Z,17.23
2023-01-30T01:18:05.935Z,17.27
2023-01-30T01:20:32.987Z,16.83
2023-01-30T01:22:59.962Z,17.10
2023-01-30T01:25:27.101Z,17.47
2023-01-30T01:27:54.570Z,17.37
2023-01-30T01:30:21.765Z,17.33
2023-01-30T01:32:49.071Z,16.97
2023-01-30T01:35:16.599Z,17.33
2023-01-30T01:37:44.051Z,17.53
2023-01-30T01:40:38.757Z,15.00
2023-01-30T01:43:31.644Z,14.27
2023-01-30T01:46:18.604Z,14.70
2023-01-30T01:49:18.851Z,13.33
2023-01-30T01:52:28.187Z,15.53
2023-01-30T01:55:23.723Z,15.50
2023-01-30T01:58:11.888Z,16.67
2023-01-30T02:00:58.640Z,17.43
2023-01-30T02:04:02.889Z,16.73
2023-01-30T02:06:51.212Z,15.93
2023-01-30T02:09:30.177Z,17.20
2023-01-30T02:12:24.237Z,17.47
2023-01-30T02:15:31.126Z,16.70
2023-01-30T02:18:25.217Z,16.63
2023-01-30T02:21:22.661Z,16.83
2023-01-30T02:24:16.468Z,16.57
2023-01-30T02:26:50.075Z,15.73
2023-01-30T02:30:03.460Z,16.67
2023-01-30T02:32:48.601Z,16.47
2023-01-30T02:35:26.325Z,16.03
2023-01-30T02:37:53.294Z,14.37
2023-01-30T02:40:42.230Z,12.93
2023-01-30T02:43:31.445Z,11.93
2023-01-30T02:46:24.890Z,11.63
2023-01-30T02:49:07.021Z,12.40
2023-01-30T02:51:40.021Z,12.20
2023-01-30T02:54:11.507Z,11.40
2023-01-30T02:57:02.136Z,11.77
2023-01-30T02:59:41.212Z,12.10
2023-01-30T03:02:26.622Z,11.90
2023-01-30T03:05:52.974Z,12.33
2023-01-30T03:08:43.095Z,11.93
2023-01-30T03:11:12.080Z,12.07
2023-01-30T03:13:50.301Z,12.53
2023-01-30T03:16:40.219Z,13.03
2023-01-30T03:19:12.238Z,12.47
2023-01-30T03:21:44.891Z,11.97
2023-01-30T03:24:13.396Z,13.20
2023-01-30T03:26:58.674Z,11.70
2023-01-30T03:29:25.756Z,12.17
2023-01-30T03:31:52.849Z,13.50
2023-01-30T03:34:19.853Z,13.03
2023-01-30T03:36:48.328Z,12.40
2023-01-30T03:39:16.200Z,35.93
2023-01-30T03:41:43.287Z,16.17
2023-01-30T03:44:10.253Z,16.07
2023-01-30T03:46:37.731Z,14.03
2023-01-30T03:49:05.331Z,13.47
2023-01-30T03:51:32.519Z,15.07
2023-01-30T03:53:59.519Z,14.57
2023-01-30T03:56:26.747Z,14.13
2023-01-30T03:58:53.768Z,14.27
2023-01-30T04:01:21.161Z,14.73
2023-01-30T04:03:49.319Z,14.57
2023-01-30T04:06:17.100Z,14.00
2023-01-30T04:08:44.161Z,14.23
2023-01-30T04:11:11.193Z,14.50
2023-01-30T04:13:38.392Z,14.13
2023-01-30T04:16:24.363Z,11.87
2023-01-30T04:18:52.200Z,13.47
2023-01-30T04:21:20.444Z,12.77
2023-01-30T04:23:47.998Z,13.03
2023-01-30T04:26:16.019Z,13.40
2023-01-30T04:28:45.027Z,14.47
2023-01-30T04:31:12.090Z,14.23
2023-01-30T04:33:40.724Z,13.40
2023-01-30T04:36:09.929Z,14.43
2023-01-30T04:38:38.813Z,14.20
2023-01-30T04:41:06.810Z,13.20
2023-01-30T04:43:34.854Z,13.70
2023-01-30T04:46:02.517Z,12.83
2023-01-30T04:48:29.902Z,12.00
2023-01-30T04:50:57.287Z,12.87
2023-01-30T04:53:25.144Z,12.87
2023-01-30T04:55:52.899Z,10.03
2023-01-30T04:58:20.363Z,12.90
2023-01-30T05:00:48.055Z,14.60
2023-01-30T05:03:16.230Z,13.70
2023-01-30T05:05:46.621Z,14.10
2023-01-30T05:08:14.409Z,13.20
2023-01-30T05:10:41.608Z,13.20
2023-01-30T05:13:09.068Z,13.07
2023-01-30T05:15:36.490Z,13.50
2023-01-30T05:18:03.917Z,13.53
2023-01-30T05:20:31.078Z,12.43
2023-01-30T05:22:58.364Z,12.93
2023-01-30T05:25:25.398Z,16.43
2023-01-30T05:27:52.414Z,20.07
2023-01-30T05:30:20.073Z,16.53
2023-01-30T05:32:47.533Z,15.43
2023-01-30T05:35:14.972Z,14.00
2023-01-30T05:37:42.376Z,13.73
2023-01-30T05:40:10.699Z,14.20
2023-01-30T05:42:38.312Z,13.33
2023-01-30T05:45:06.137Z,14.03
2023-01-30T05:47:33.608Z,12.50
2023-01-30T05:50:00.729Z,13.57
2023-01-30T05:52:28.212Z,14.00
2023-01-30T05:54:55.227Z,13.27
2023-01-30T05:57:22.762Z,14.23
2023-01-30T05:59:50.024Z,13.23
2023-01-30T06:02:17.263Z,12.47
2023-01-30T06:04:44.468Z,12.60
2023-01-30T06:07:11.585Z,12.23
2023-01-30T06:09:38.881Z,14.20
2023-01-30T06:12:07.841Z,13.57
2023-01-30T06:14:35.361Z,10.80
2023-01-30T06:17:02.671Z,14.23
2023-01-30T06:19:30.090Z,15.63
2023-01-30T06:21:57.610Z,16.07
2023-01-30T06:24:24.662Z,15.17
2023-01-30T06:26:51.901Z,16.30
2023-01-30T06:29:19.333Z,16.07
2023-01-30T06:31:47.161Z,15.97
2023-01-30T06:34:14.563Z,17.93
2023-01-30T06:36:41.980Z,18.53
2023-01-30T06:39:09.076Z,16.77
2023-01-30T06:41:36.355Z,17.47
2023-01-30T06:44:03.790Z,17.23
2023-01-30T06:46:31.291Z,18.00
2023-01-30T06:48:58.643Z,18.07
2023-01-30T06:51:27.656Z,16.37
2023-01-30T06:53:54.821Z,15.93
2023-01-30T06:56:21.967Z,14.30
2023-01-30T06:58:49.777Z,17.27
2023-01-30T07:01:19.601Z,18.67
2023-01-30T07:03:47.883Z,19.70
2023-01-30T07:06:15.555Z,19.03
2023-01-30T07:08:44.698Z,19.67
2023-01-30T07:11:11.734Z,18.93
2023-01-30T07:13:39.261Z,17.17
2023-01-30T07:16:07.104Z,14.17
2023-01-30T07:18:34.730Z,17.10
2023-01-30T07:21:02.079Z,17.80
2023-01-30T07:23:29.308Z,18.43
2023-01-30T07:25:56.309Z,21.17
2023-01-30T07:28:23.336Z,17.47
2023-01-30T07:30:53.037Z,19.40
2023-01-30T07:33:20.937Z,18.20
2023-01-30T07:35:48.456Z,19.90
2023-01-30T07:38:15.628Z,19.57
2023-01-30T07:40:42.780Z,19.03
2023-01-30T07:43:13.075Z,19.07
2023-01-30T07:45:43.502Z,17.93
2023-01-30T07:48:14.008Z,18.90
2023-01-30T07:50:41.492Z,17.30
2023-01-30T07:53:11.545Z,17.07
2023-01-30T07:55:38.986Z,18.77
2023-01-30T07:58:06.041Z,18.30
2023-01-30T08:00:33.416Z,17.73
2023-01-30T08:03:00.932Z,17.50
2023-01-30T08:05:28.694Z,17.37
2023-01-30T08:08:20.740Z,17.07
2023-01-30T08:10:50.925Z,16.77
2023-01-30T08:13:17.889Z,17.17
2023-01-30T08:15:44.949Z,17.10
2023-01-30T08:18:12.231Z,17.20
2023-01-30T08:20:39.427Z,18.40
2023-01-30T08:23:06.548Z,17.90
2023-01-30T08:25:35.507Z,17.47
2023-01-30T08:28:02.931Z,17.63
2023-01-30T08:30:30.918Z,18.40
2023-01-30T08:32:59.350Z,18.17
2023-01-30T08:35:26.586Z,17.50
2023-01-30T08:37:53.600Z,18.00
2023-01-30T08:40:20.971Z,18.20
2023-01-30T08:42:48.217Z,18.17
2023-01-30T08:45:15.389Z,17.90
2023-01-30T08:47:43.033Z,19.13
2023-01-30T08:50:10.878Z,18.13
2023-01-30T08:52:37.992Z,19.00
2023-01-30T08:55:05.707Z,18.57
2023-01-30T08:57:34.152Z,18.60
2023-01-30T09:00:01.793Z,17.13
2023-01-30T09:02:29.337Z,17.37
2023-01-30T09:04:56.364Z,17.37
2023-01-30T09:10:14.396Z,17.13
2023-01-30T09:12:41.817Z,17.57
2023-01-30T09:15:09.948Z,15.90
2023-01-30T09:17:38.349Z,14.53
2023-01-30T09:20:10.589Z,14.43
2023-01-30T09:22:38.194Z,14.30
2023-01-30T09:25:06.269Z,16.27
2023-01-30T09:27:33.344Z,14.93
2023-01-30T09:30:00.350Z,13.83
2023-01-30T09:32:27.390Z,13.30
2023-01-30T09:34:54.447Z,14.67
2023-01-30T09:37:22.129Z,14.50
2023-01-30T09:39:49.091Z,13.87
2023-01-30T09:42:37.112Z,14.37
2023-01-30T09:45:20.687Z,14.00
2023-01-30T09:48:32.389Z,13.97
2023-01-30T09:51:41.770Z,12.20
2023-01-30T09:54:24.745Z,12.63
2023-01-30T09:56:56.733Z,12.47
2023-01-30T09:59:32.849Z,13.47
2023-01-30T10:02:18.795Z,12.97
2023-01-30T10:05:00.573Z,12.60
2023-01-30T10:08:13.018Z,11.17
2023-01-30T10:11:09.701Z,12.70
2023-01-30T10:13:52.893Z,13.10
2023-01-30T10:16:41.988Z,13.00
2023-01-30T10:19:13.392Z,13.27
2023-01-30T10:22:28.508Z,13.30
2023-01-30T10:25:14.144Z,12.47
2023-01-30T10:28:14.152Z,13.33
2023-01-30T10:30:42.740Z,12.80
2023-01-30T10:33:22.909Z,12.47
2023-01-30T10:36:23.372Z,13.03
2023-01-30T10:38:54.773Z,12.60
2023-01-30T10:41:35.083Z,11.43
2023-01-30T10:44:13.694Z,10.93
2023-01-30T10:47:01.328Z,13.03
2023-01-30T10:49:40.558Z,10.73
2023-01-30T10:52:27.258Z,11.03
2023-01-30T10:55:13.431Z,11.43
2023-01-30T10:57:51.396Z,11.10
2023-01-30T11:00:43.167Z,10.77
2023-01-30T11:03:41.346Z,10.77
2023-01-30T11:06:17.067Z,10.30
2023-01-30T11:08:45.070Z,13.53
2023-01-30T11:11:31.447Z,9.90
2023-01-30T11:14:10.779Z,11.20
2023-01-30T11:16:53.306Z,10.37
2023-01-30T11:19:26.324Z,9.40
2023-01-30T11:21:56.067Z,10.63
2023-01-30T11:24:44.388Z,16.10
2023-01-30T11:27:32.281Z,12.67
2023-01-30T11:30:20.598Z,9.20
2023-01-30T11:32:51.110Z,8.93
2023-01-30T11:35:24.869Z,7.97
2023-01-30T11:37:54.108Z,9.20
2023-01-30T11:40:28.039Z,8.60
2023-01-30T11:43:13.386Z,7.00
2023-01-30T11:45:44.785Z,7.13
2023-01-30T11:48:31.605Z,7.27
2023-01-30T11:51:06.145Z,7.90
2023-01-30T11:53:51.181Z,8.00
2023-01-30T11:56:29.009Z,7.87
2023-01-30T11:59:00.532Z,7.70
2023-01-30T12:01:31.519Z,7.47
2023-01-30T12:03:59.791Z,7.67
2023-01-30T12:06:32.831Z,6.83
2023-01-30T12:09:00.525Z,7.23
2023-01-30T12:11:42.390Z,6.70
2023-01-30T12:14:16.079Z,7.30
2023-01-30T12:16:54.734Z,6.70
2023-01-30T12:19:45.674Z,6.73
2023-01-30T12:22:53.110Z,6.37
2023-01-30T12:25:26.644Z,6.67
2023-01-30T12:28:13.109Z,8.00
2023-01-30T12:30:45.506Z,7.00
2023-01-30T12:36:17.516Z,6.93
2023-01-30T12:39:00.242Z,7.13
2023-01-30T12:41:53.945Z,6.20
2023-01-30T12:44:32.274Z,6.60
2023-01-30T12:47:07.998Z,7.07
2023-01-30T12:49:53.334Z,6.00
2023-01-30T12:52:41.412Z,7.07
2023-01-30T12:55:27.268Z,6.80
2023-01-30T12:58:00.234Z,7.10
2023-01-30T13:00:36.292Z,5.90
2023-01-30T13:03:12.227Z,5.47
2023-01-30T13:06:06.427Z,5.73
2023-01-30T13:08:41.203Z,5.30
2023-01-30T13:11:29.181Z,5.63
2023-01-30T13:14:10.749Z,6.00
2023-01-30T13:17:01.261Z,5.70
2023-01-30T13:19:41.246Z,5.80
2023-01-30T13:22:30.943Z,5.57
2023-01-30T13:25:10.205Z,5.43
2023-01-30T13:27:40.623Z,5.77
2023-01-30T13:30:14.148Z,5.57
2023-01-30T13:32:52.163Z,6.50
2023-01-30T13:35:41.688Z,6.27
2023-01-30T13:38:13.452Z,7.43
2023-01-30T13:40:43.957Z,7.43
2023-01-30T13:43:26.232Z,6.80
2023-01-30T13:45:56.243Z,7.47
2023-01-30T13:48:49.866Z,6.87
2023-01-30T13:51:34.712Z,7.23
2023-01-30T13:54:16.854Z,6.90
2023-01-30T13:56:49.931Z,7.07
2023-01-30T13:59:42.303Z,6.73
2023-01-30T14:02:17.217Z,6.93
2023-01-30T14:04:53.166Z,7.53
2023-01-30T14:07:39.430Z,6.40
2023-01-30T14:10:09.461Z,6.53
2023-01-30T14:12:44.300Z,7.53
2023-01-30T14:15:14.981Z,6.30
2023-01-30T14:18:07.409Z,6.20
2023-01-30T14:20:46.347Z,6.57
2023-01-30T14:23:36.692Z,5.47
2023-01-30T14:26:04.328Z,6.87
2023-01-30T14:28:31.515Z,6.77
2023-01-30T14:31:03.304Z,7.67
2023-01-30T14:33:49.949Z,6.27
2023-01-30T14:36:17.108Z,5.93
2023-01-30T14:38:45.471Z,6.73
2023-01-30T14:41:26.769Z,6.53
2023-01-30T14:43:54.696Z,6.70
2023-01-30T14:46:22.120Z,6.03
2023-01-30T14:48:55.676Z,5.47
2023-01-30T14:51:25.996Z,6.33
2023-01-30T14:54:14.772Z,6.50
2023-01-30T14:56:58.974Z,6.40
2023-01-30T15:00:15.069Z,6.40
2023-01-30T15:02:49.251Z,6.23
2023-01-30T15:05:39.748Z,5.80
2023-01-30T15:08:19.208Z,6.57
2023-01-30T15:10:56.066Z,6.63
2023-01-30T15:13:44.480Z,6.87
2023-01-30T15:16:41.355Z,6.13
2023-01-30T15:19:20.592Z,6.70
2023-01-30T15:22:25.444Z,6.87
2023-01-30T15:25:31.377Z,8.47
2023-01-30T15:28:15.774Z,8.07
2023-01-30T15:31:05.877Z,8.00
2023-01-30T15:33:33.139Z,7.50
2023-01-30T15:36:17.490Z,7.60
2023-01-30T15:38:44.485Z,7.20
2023-01-30T15:41:12.206Z,7.67
2023-01-30T15:43:52.203Z,6.80
2023-01-30T15:46:45.221Z,6.67
2023-01-30T15:49:42.407Z,7.20
2023-01-30T15:52:19.782Z,7.20
2023-01-30T15:54:52.688Z,7.37
2023-01-30T15:57:41.128Z,7.37
2023-01-30T16:00:18.339Z,8.23
2023-01-30T16:02:46.090Z,7.73
2023-01-30T16:05:25.044Z,7.57
2023-01-30T16:07:54.526Z,7.50
2023-01-30T16:10:27.423Z,8.63
2023-01-30T16:12:57.689Z,8.97
2023-01-30T16:15:54.506Z,8.70
2023-01-30T16:18:24.920Z,9.00
2023-01-30T16:21:14.385Z,8.20
2023-01-30T16:23:53.546Z,7.17
2023-01-30T16:26:22.103Z,7.63
2023-01-30T16:28:58.888Z,7.77
2023-01-30T16:31:27.900Z,8.20
2023-01-30T16:33:55.871Z,9.37
2023-01-30T16:36:23.092Z,9.13
2023-01-30T16:38:51.357Z,9.40
2023-01-30T16:41:43.444Z,8.63
2023-01-30T16:44:16.175Z,8.23
2023-01-30T16:46:51.848Z,8.63
2023-01-30T16:49:38.590Z,8.43
2023-01-30T16:52:11.947Z,9.07
2023-01-30T16:54:41.655Z,7.97
2023-01-30T16:57:39.895Z,10.60
2023-01-30T17:00:10.379Z,9.93
2023-01-30T17:02:49.445Z,9.93
2023-01-30T17:05:19.691Z,9.63
2023-01-30T17:07:48.387Z,10.90
2023-01-30T17:10:37.288Z,10.50
2023-01-30T17:13:05.390Z,12.03
2023-01-30T17:15:34.281Z,8.40
2023-01-30T17:18:03.296Z,12.63
2023-01-30T17:20:38.845Z,16.13
2023-01-30T17:23:10.872Z,17.13
2023-01-30T17:25:42.588Z,17.10
2023-01-30T17:28:17.508Z,17.40
2023-01-30T17:30:44.779Z,16.43
2023-01-30T17:33:12.225Z,16.73
2023-01-30T17:35:40.652Z,12.97
2023-01-30T17:38:09.132Z,14.03
2023-01-30T17:40:38.158Z,13.97
2023-01-30T17:43:05.642Z,10.07
2023-01-30T17:45:32.640Z,11.33
2023-01-30T17:47:59.811Z,11.63
2023-01-30T17:50:28.581Z,12.50
2023-01-30T17:52:55.639Z,12.20
2023-01-30T17:55:23.169Z,13.23
2023-01-30T17:57:50.483Z,14.40
2023-01-30T18:00:20.876Z,15.80
2023-01-30T18:02:49.103Z,13.90
2023-01-30T18:05:16.327Z,10.03
2023-01-30T18:07:44.200Z,9.13
2023-01-30T18:10:16.144Z,4.83
2023-01-30T18:12:45.498Z,4.40
2023-01-30T18:15:15.529Z,3.70
2023-01-30T18:17:48.689Z,2.60
2023-01-30T18:20:19.940Z,1.40
2023-01-30T18:22:47.553Z,1.67
2023-01-30T18:25:15.513Z,1.20
2023-01-30T18:27:44.375Z,1.30
2023-01-30T18:30:16.886Z,1.00
2023-01-30T18:32:52.392Z,1.03
2023-01-30T18:35:23.383Z,1.13
2023-01-30T18:37:52.101Z,1.37
2023-01-30T18:40:20.858Z,1.20
2023-01-30T18:42:48.395Z,1.10
2023-01-30T18:45:15.716Z,1.20
2023-01-30T18:47:42.705Z,1.30
2023-01-30T18:50:10.223Z,1.30
2023-01-30T18:52:37.256Z,1.20
2023-01-30T18:55:04.632Z,1.13
2023-01-30T18:57:31.683Z,1.20
2023-01-30T18:59:58.739Z,1.27
2023-01-30T19:02:26.024Z,1.17
2023-01-30T19:04:54.415Z,1.10
2023-01-30T19:07:23.080Z,1.53
2023-01-30T19:09:51.318Z,1.33
2023-01-30T19:12:36.745Z,1.33
2023-01-30T19:15:04.684Z,1.30
2023-01-30T19:17:31.729Z,1.60
2023-01-30T19:20:01.228Z,1.47
2023-01-30T19:22:28.595Z,1.57
2023-01-30T19:24:55.909Z,1.50
2023-01-30T19:27:23.636Z,1.50
2023-01-30T19:29:51.008Z,1.30
2023-01-30T19:32:18.202Z,1.40
2023-01-30T19:34:45.635Z,1.60
2023-01-30T19:37:12.979Z,1.40
2023-01-30T19:39:39.974Z,1.40
2023-01-30T19:42:07.015Z,1.97
2023-01-30T19:44:34.300Z,2.10
2023-01-30T19:47:01.488Z,2.97
2023-01-30T19:49:28.568Z,3.20
2023-01-30T19:51:56.982Z,3.23
2023-01-30T19:54:24.254Z,3.83
2023-01-30T19:56:51.834Z,2.50
2023-01-30T19:59:19.020Z,1.93
2023-01-30T20:01:46.515Z,1.73
2023-01-30T20:04:13.957Z,1.67
2023-01-30T20:06:44.736Z,1.37
2023-01-30T20:09:12.532Z,1.33
2023-01-30T20:11:41.756Z,1.40
2023-01-30T20:14:09.685Z,1.23
2023-01-30T20:16:37.174Z,1.40
2023-01-30T20:19:13.494Z,1.30
2023-01-30T20:21:40.803Z,1.50
2023-01-30T20:24:09.862Z,1.80
2023-01-30T20:26:39.938Z,1.40
2023-01-30T20:29:09.451Z,1.10
2023-01-30T20:31:39.216Z,1.43
2023-01-30T20:34:13.869Z,1.20
2023-01-30T20:36:41.702Z,1.37
2023-01-30T20:39:09.339Z,1.30
2023-01-30T20:41:38.099Z,1.30
2023-01-30T20:44:09.172Z,1.10
2023-01-30T20:46:42.654Z,1.50
2023-01-30T20:49:16.153Z,1.13
2023-01-30T20:51:43.705Z,1.20
2023-01-30T20:54:12.344Z,1.20
2023-01-30T20:56:43.727Z,1.20
2023-01-30T20:59:24.398Z,1.20
2023-01-30T21:01:51.897Z,1.10
2023-01-30T21:04:19.999Z,1.10
2023-01-30T21:06:47.354Z,1.30
2023-01-30T21:09:20.590Z,1.30
2023-01-30T21:11:48.355Z,1.30
2023-01-30T21:14:18.047Z,1.30
2023-01-30T21:16:45.597Z,1.20
2023-01-30T21:19:16.360Z,1.17
2023-01-30T21:21:51.311Z,1.30
2023-01-30T21:24:22.093Z,1.20
2023-01-30T21:26:49.662Z,1.47
2023-01-30T21:29:19.208Z,1.23
2023-01-30T21:31:47.093Z,1.40
2023-01-30T21:34:14.791Z,1.37
2023-01-30T21:36:42.066Z,1.30
2023-01-30T21:39:32.561Z,1.23
2023-01-30T21:42:19.305Z,1.30
2023-01-30T21:44:47.441Z,1.27
2023-01-30T21:47:15.048Z,1.50
2023-01-30T21:49:46.089Z,1.50
2023-01-30T21:52:13.413Z,1.30
2023-01-30T21:54:40.654Z,1.40
2023-01-30T21:57:07.692Z,1.50
2023-01-30T21:59:35.800Z,1.50
2023-01-30T22:02:03.128Z,1.30
2023-01-30T22:04:30.357Z,1.23
2023-01-30T22:06:57.449Z,1.40
2023-01-30T22:09:24.470Z,1.30
2023-01-30T22:11:51.705Z,1.30
2023-01-30T22:14:18.993Z,1.20
2023-01-30T22:16:46.080Z,1.40
2023-01-30T22:19:14.625Z,1.40
2023-01-30T22:21:41.927Z,1.50
2023-01-30T22:24:11.621Z,1.47
2023-01-30T22:26:39.621Z,1.60
2023-01-30T22:29:07.005Z,1.40
2023-01-30T22:31:36.603Z,1.50
2023-01-30T22:34:04.904Z,1.60
2023-01-30T22:36:33.514Z,1.30
2023-01-30T22:39:01.227Z,1.60
2023-01-30T22:41:32.235Z,1.40
2023-01-30T22:44:00.165Z,1.50
2023-01-30T22:46:33.306Z,1.30
2023-01-30T22:49:02.112Z,1.50
2023-01-30T22:51:32.154Z,1.37
2023-01-30T22:54:02.187Z,1.33
2023-01-30T22:56:34.020Z,1.60
2023-01-30T22:59:00.968Z,1.70
2023-01-30T23:01:34.667Z,1.57
2023-01-30T23:04:14.331Z,1.43
2023-01-30T23:06:42.412Z,1.60
2023-01-30T23:09:11.379Z,1.40
2023-01-30T23:11:40.398Z,1.30
2023-01-30T23:14:09.674Z,1.50
2023-01-30T23:16:39.226Z,1.70
2023-01-30T23:19:07.812Z,1.63
2023-01-30T23:21:36.812Z,1.60
2023-01-30T23:24:16.230Z,1.60
2023-01-30T23:26:51.385Z,1.50
2023-01-30T23:29:20.275Z,1.50
2023-01-30T23:31:48.578Z,1.40
2023-01-30T23:34:17.523Z,1.50
2023-01-30T23:36:45.573Z,1.50
2023-01-30T23:39:14.019Z,1.60
2023-01-30T23:41:42.845Z,1.77
2023-01-30T23:44:10.632Z,1.80
2023-01-30T23:46:40.490Z,1.53
2023-01-30T23:49:10.680Z,1.50
2023-01-30T23:51:41.353Z,1.70
2023-01-30T23:54:09.006Z,1.60
2023-01-30T23:56:39.874Z,1.50
2023-01-30T23:59:07.561Z,1.67
